createdAt,value
2019-01-26T00:00:19.226Z,989.2
2019-01-26T00:01:19.210Z,989.19
2019-01-26T00:02:19.202Z,989.21
2019-01-26T00:03:19.189Z,989.18
2019-01-26T00:04:19.176Z,989.18
2019-01-26T00:05:19.168Z,989.13
2019-01-26T00:06:19.155Z,989.14
2019-01-26T00:07:19.144Z,989.11
2019-01-26T00:08:19.132Z,989.18
2019-01-26T00:09:19.118Z,989.2
2019-01-26T00:10:19.109Z,989.16
2019-01-26T00:11:19.097Z,989.09
2019-01-26T00:12:19.084Z,989.09
2019-01-26T00:13:19.074Z,989.09
2019-01-26T00:14:19.060Z,989.11
2019-01-26T00:15:19.053Z,989.02
2019-01-26T00:16:21.023Z,989.02
2019-01-26T00:17:19.025Z,989
2019-01-26T00:18:19.022Z,989.02
2019-01-26T00:19:19.008Z,989.08
2019-01-26T00:20:18.992Z,988.99
2019-01-26T00:21:18.989Z,988.99
2019-01-26T00:22:18.970Z,988.94
2019-01-26T00:23:18.960Z,988.92
2019-01-26T00:24:18.949Z,988.9
2019-01-26T00:25:18.936Z,988.91
2019-01-26T00:26:18.922Z,988.88
2019-01-26T00:27:18.909Z,988.9
2019-01-26T00:28:18.901Z,988.87
2019-01-26T00:29:18.890Z,988.85
2019-01-26T00:30:18.875Z,988.83
2019-01-26T00:31:18.865Z,988.81
2019-01-26T00:32:18.854Z,988.86
2019-01-26T00:33:18.841Z,988.83
2019-01-26T00:34:18.829Z,988.81
2019-01-26T00:35:18.819Z,988.78
2019-01-26T00:36:18.810Z,988.78
2019-01-26T00:37:18.797Z,988.78
2019-01-26T00:38:18.785Z,988.75
2019-01-26T00:39:18.774Z,988.77
2019-01-26T00:40:18.821Z,988.8
2019-01-26T00:41:18.751Z,988.83
2019-01-26T00:42:18.740Z,988.84
2019-01-26T00:43:18.728Z,988.77
2019-01-26T00:44:18.718Z,988.86
2019-01-26T00:45:18.712Z,988.85
2019-01-26T00:46:18.694Z,988.8
2019-01-26T00:47:18.686Z,988.81
2019-01-26T00:48:18.669Z,988.82
2019-01-26T00:49:18.911Z,988.78
2019-01-26T00:50:18.658Z,988.79
2019-01-26T00:51:18.639Z,988.79
2019-01-26T00:52:18.626Z,988.73
2019-01-26T00:53:18.614Z,988.69
2019-01-26T00:54:18.604Z,988.69
2019-01-26T00:55:18.591Z,988.79
2019-01-26T00:56:18.578Z,988.75
2019-01-26T00:57:18.567Z,988.73
2019-01-26T00:58:18.555Z,988.76
2019-01-26T00:59:18.543Z,988.74
2019-01-26T01:00:18.532Z,988.8
2019-01-26T01:01:18.521Z,988.8
2019-01-26T01:02:18.511Z,988.76
2019-01-26T01:03:18.504Z,988.76
2019-01-26T01:04:18.489Z,988.83
2019-01-26T01:05:18.481Z,988.8
2019-01-26T01:06:18.472Z,988.77
2019-01-26T01:07:18.453Z,988.72
2019-01-26T01:08:18.443Z,988.73
2019-01-26T01:09:18.435Z,988.67
2019-01-26T01:10:18.426Z,988.65
2019-01-26T01:11:18.415Z,988.66
2019-01-26T01:12:18.401Z,988.67
2019-01-26T01:13:18.384Z,988.63
2019-01-26T01:14:18.370Z,988.62
2019-01-26T01:15:18.380Z,988.56
2019-01-26T01:16:18.377Z,988.53
2019-01-26T01:17:18.345Z,988.55
2019-01-26T01:18:18.344Z,988.54
2019-01-26T01:19:20.775Z,988.58
2019-01-26T01:20:18.302Z,988.44
2019-01-26T01:21:18.300Z,988.54
2019-01-26T01:22:18.279Z,988.49
2019-01-26T01:23:18.265Z,988.44
2019-01-26T01:24:18.262Z,988.44
2019-01-26T01:25:18.242Z,988.39
2019-01-26T01:26:18.231Z,988.35
2019-01-26T01:27:18.217Z,988.35
2019-01-26T01:28:18.205Z,988.29
2019-01-26T01:29:18.191Z,988.33
2019-01-26T01:30:18.178Z,988.32
2019-01-26T01:31:18.169Z,988.34
2019-01-26T01:32:18.162Z,988.29
2019-01-26T01:33:18.147Z,988.27
2019-01-26T01:34:18.137Z,988.31
2019-01-26T01:35:18.123Z,988.3
2019-01-26T01:36:18.124Z,988.27
2019-01-26T01:37:18.096Z,988.31
2019-01-26T01:38:18.087Z,988.36
2019-01-26T01:39:18.105Z,988.39
2019-01-26T01:40:18.065Z,988.34
2019-01-26T01:41:18.048Z,988.41
2019-01-26T01:42:18.034Z,988.36
2019-01-26T01:43:18.020Z,988.41
2019-01-26T01:44:18.063Z,988.43
2019-01-26T01:45:18.004Z,988.44
2019-01-26T01:46:17.985Z,988.42
2019-01-26T01:47:17.973Z,988.51
2019-01-26T01:48:17.960Z,988.51
2019-01-26T01:49:17.949Z,988.48
2019-01-26T01:50:17.938Z,988.51
2019-01-26T01:51:17.925Z,988.47
2019-01-26T01:52:17.913Z,988.46
2019-01-26T01:53:17.900Z,988.46
2019-01-26T01:54:17.890Z,988.49
2019-01-26T01:55:17.875Z,988.53
2019-01-26T01:56:17.864Z,988.52
2019-01-26T01:57:17.853Z,988.47
2019-01-26T01:58:17.840Z,988.43
2019-01-26T01:59:17.829Z,988.46
2019-01-26T02:00:17.861Z,988.46
2019-01-26T02:01:17.803Z,988.4
2019-01-26T02:02:17.791Z,988.4
2019-01-26T02:03:17.784Z,988.36
2019-01-26T02:04:17.775Z,988.37
2019-01-26T02:05:17.755Z,988.37
2019-01-26T02:06:17.742Z,988.36
2019-01-26T02:07:17.740Z,988.3
2019-01-26T02:08:17.732Z,988.27
2019-01-26T02:09:17.706Z,988.24
2019-01-26T02:10:17.695Z,988.26
2019-01-26T02:11:17.683Z,988.22
2019-01-26T02:12:17.673Z,988.22
2019-01-26T02:13:17.670Z,988.24
2019-01-26T02:14:17.647Z,988.22
2019-01-26T02:15:17.636Z,988.17
2019-01-26T02:16:17.621Z,988.21
2019-01-26T02:17:17.613Z,988.22
2019-01-26T02:18:17.600Z,988.17
2019-01-26T02:19:17.588Z,988.15
2019-01-26T02:20:17.581Z,988.14
2019-01-26T02:21:17.563Z,988.09
2019-01-26T02:22:17.551Z,988.15
2019-01-26T02:23:17.540Z,988.1
2019-01-26T02:24:17.528Z,988.08
2019-01-26T02:25:17.535Z,988.05
2019-01-26T02:26:17.506Z,988.09
2019-01-26T02:27:17.492Z,988
2019-01-26T02:28:17.479Z,987.94
2019-01-26T02:29:17.467Z,987.99
2019-01-26T02:30:17.455Z,987.93
2019-01-26T02:31:17.442Z,987.97
2019-01-26T02:32:17.431Z,987.96
2019-01-26T02:33:17.421Z,988.01
2019-01-26T02:34:17.417Z,987.97
2019-01-26T02:35:17.412Z,987.97
2019-01-26T02:36:17.382Z,987.96
2019-01-26T02:37:17.373Z,987.96
2019-01-26T02:38:17.361Z,987.99
2019-01-26T02:39:17.372Z,987.98
2019-01-26T02:40:17.395Z,987.9
2019-01-26T02:41:17.324Z,987.95
2019-01-26T02:42:17.310Z,987.9
2019-01-26T02:43:17.302Z,987.93
2019-01-26T02:44:17.286Z,987.96
2019-01-26T02:45:17.274Z,987.93
2019-01-26T02:46:17.262Z,987.96
2019-01-26T02:47:17.249Z,988.01
2019-01-26T02:48:17.241Z,987.95
2019-01-26T02:49:17.224Z,987.92
2019-01-26T02:50:17.215Z,987.91
2019-01-26T02:51:17.202Z,987.9
2019-01-26T02:52:17.187Z,987.86
2019-01-26T02:53:17.175Z,987.92
2019-01-26T02:54:17.166Z,987.87
2019-01-26T02:55:17.153Z,987.83
2019-01-26T02:56:17.139Z,987.84
2019-01-26T02:57:17.129Z,987.81
2019-01-26T02:58:17.122Z,987.83
2019-01-26T02:59:17.112Z,987.81
2019-01-26T03:00:17.093Z,987.84
2019-01-26T03:01:17.080Z,987.82
2019-01-26T03:02:17.069Z,987.76
2019-01-26T03:03:17.056Z,987.8
2019-01-26T03:04:17.062Z,987.83
2019-01-26T03:05:17.034Z,987.81
2019-01-26T03:06:17.030Z,987.8
2019-01-26T03:07:17.007Z,987.78
2019-01-26T03:08:16.996Z,987.75
2019-01-26T03:09:16.985Z,987.71
2019-01-26T03:10:16.978Z,987.74
2019-01-26T03:11:16.961Z,987.68
2019-01-26T03:12:16.952Z,987.6
2019-01-26T03:13:16.938Z,987.6
2019-01-26T03:14:16.944Z,987.59
2019-01-26T03:15:16.962Z,987.58
2019-01-26T03:16:16.907Z,987.59
2019-01-26T03:17:16.892Z,987.57
2019-01-26T03:18:16.879Z,987.59
2019-01-26T03:19:16.865Z,987.62
2019-01-26T03:20:16.854Z,987.56
2019-01-26T03:21:16.851Z,987.58
2019-01-26T03:22:16.829Z,987.54
2019-01-26T03:23:16.820Z,987.53
2019-01-26T03:24:16.808Z,987.56
2019-01-26T03:25:16.798Z,987.49
2019-01-26T03:26:16.795Z,987.47
2019-01-26T03:27:16.790Z,987.45
2019-01-26T03:28:16.786Z,987.44
2019-01-26T03:29:16.751Z,987.46
2019-01-26T03:30:16.836Z,987.38
2019-01-26T03:31:16.729Z,987.33
2019-01-26T03:32:16.725Z,987.33
2019-01-26T03:33:16.727Z,987.29
2019-01-26T03:34:16.690Z,987.3
2019-01-26T03:35:16.680Z,987.29
2019-01-26T03:36:16.674Z,987.25
2019-01-26T03:37:16.656Z,987.27
2019-01-26T03:38:16.648Z,987.34
2019-01-26T03:39:16.632Z,987.31
2019-01-26T03:40:16.740Z,987.31
2019-01-26T03:41:16.615Z,987.23
2019-01-26T03:42:16.609Z,987.27
2019-01-26T03:43:16.590Z,987.25
2019-01-26T03:44:16.579Z,987.24
2019-01-26T03:45:16.572Z,987.27
2019-01-26T03:46:16.561Z,987.26
2019-01-26T03:47:16.551Z,987.24
2019-01-26T03:48:16.538Z,987.16
2019-01-26T03:49:16.520Z,987.18
2019-01-26T03:50:16.508Z,987.2
2019-01-26T03:51:16.505Z,987.14
2019-01-26T03:52:16.498Z,987.13
2019-01-26T03:53:16.475Z,987.08
2019-01-26T03:54:16.462Z,987.05
2019-01-26T03:55:16.479Z,987.07
2019-01-26T03:56:16.444Z,987.12
2019-01-26T03:57:16.436Z,987.07
2019-01-26T03:58:16.418Z,987.07
2019-01-26T03:59:16.405Z,987.11
2019-01-26T04:00:16.397Z,987.15
2019-01-26T04:01:16.390Z,987.11
2019-01-26T04:02:16.384Z,987.08
2019-01-26T04:03:16.366Z,987.11
2019-01-26T04:04:16.350Z,987.08
2019-01-26T04:05:16.402Z,987.03
2019-01-26T04:06:16.334Z,987.05
2019-01-26T04:07:16.315Z,987.03
2019-01-26T04:08:16.306Z,986.97
2019-01-26T04:09:16.293Z,986.97
2019-01-26T04:10:16.405Z,987
2019-01-26T04:11:16.269Z,986.93
2019-01-26T04:12:16.267Z,986.93
2019-01-26T04:13:16.248Z,986.93
2019-01-26T04:14:16.234Z,986.94
2019-01-26T04:15:16.302Z,986.92
2019-01-26T04:16:16.215Z,986.91
2019-01-26T04:17:21.722Z,986.89
2019-01-26T04:18:16.191Z,986.92
2019-01-26T04:19:16.181Z,986.88
2019-01-26T04:20:16.181Z,986.87
2019-01-26T04:21:16.160Z,986.87
2019-01-26T04:22:16.149Z,986.9
2019-01-26T04:23:16.136Z,986.9
2019-01-26T04:24:16.129Z,986.95
2019-01-26T04:25:16.114Z,986.98
2019-01-26T04:26:16.102Z,986.93
2019-01-26T04:27:16.088Z,986.91
2019-01-26T04:28:16.079Z,986.91
2019-01-26T04:29:16.069Z,986.87
2019-01-26T04:30:16.150Z,986.86
2019-01-26T04:31:16.049Z,986.86
2019-01-26T04:32:16.043Z,986.89
2019-01-26T04:33:16.026Z,986.9
2019-01-26T04:34:16.013Z,986.9
2019-01-26T04:35:16.086Z,986.85
2019-01-26T04:36:15.991Z,986.85
2019-01-26T04:37:15.990Z,986.83
2019-01-26T04:38:15.971Z,986.86
2019-01-26T04:39:15.968Z,986.85
2019-01-26T04:40:16.006Z,986.87
2019-01-26T04:41:15.938Z,986.83
2019-01-26T04:42:15.926Z,986.87
2019-01-26T04:43:15.919Z,986.84
2019-01-26T04:44:15.904Z,986.84
2019-01-26T04:45:15.983Z,986.85
2019-01-26T04:46:15.881Z,986.86
2019-01-26T04:47:15.872Z,986.85
2019-01-26T04:48:15.858Z,986.79
2019-01-26T04:49:15.855Z,986.83
2019-01-26T04:50:15.941Z,986.89
2019-01-26T04:51:15.832Z,986.81
2019-01-26T04:52:15.818Z,986.82
2019-01-26T04:53:15.807Z,986.81
2019-01-26T04:54:15.797Z,986.82
2019-01-26T04:55:15.823Z,986.78
2019-01-26T04:56:15.777Z,986.79
2019-01-26T04:57:15.767Z,986.82
2019-01-26T04:58:15.750Z,986.82
2019-01-26T04:59:15.740Z,986.84
2019-01-26T05:00:15.814Z,986.86
2019-01-26T05:01:15.719Z,986.87
2019-01-26T05:02:15.707Z,986.89
2019-01-26T05:03:15.699Z,986.86
2019-01-26T05:04:15.695Z,986.89
2019-01-26T05:05:15.712Z,986.91
2019-01-26T05:06:15.664Z,986.93
2019-01-26T05:07:15.668Z,986.91
2019-01-26T05:08:15.644Z,986.9
2019-01-26T05:09:15.629Z,986.91
2019-01-26T05:10:15.717Z,986.89
2019-01-26T05:11:15.608Z,986.85
2019-01-26T05:12:15.603Z,986.91
2019-01-26T05:13:15.587Z,986.87
2019-01-26T05:14:15.583Z,986.88
2019-01-26T05:15:15.616Z,986.86
2019-01-26T05:16:15.560Z,986.85
2019-01-26T05:17:15.614Z,986.83
2019-01-26T05:18:15.620Z,986.83
2019-01-26T05:19:15.524Z,986.84
2019-01-26T05:20:15.565Z,986.86
2019-01-26T05:21:15.499Z,986.86
2019-01-26T05:22:15.491Z,986.86
2019-01-26T05:23:15.491Z,986.86
2019-01-26T05:24:15.472Z,986.84
2019-01-26T05:25:15.459Z,986.89
2019-01-26T05:26:15.455Z,986.88
2019-01-26T05:27:15.441Z,986.87
2019-01-26T05:28:15.427Z,986.88
2019-01-26T05:29:15.416Z,986.91
2019-01-26T05:30:15.437Z,986.9
2019-01-26T05:31:15.400Z,986.9
2019-01-26T05:32:15.382Z,986.86
2019-01-26T05:33:15.375Z,986.87
2019-01-26T05:34:15.362Z,986.9
2019-01-26T05:35:15.352Z,986.9
2019-01-26T05:36:15.345Z,986.9
2019-01-26T05:37:15.337Z,986.89
2019-01-26T05:38:15.325Z,986.86
2019-01-26T05:39:15.313Z,986.87
2019-01-26T05:40:15.299Z,986.87
2019-01-26T05:41:15.290Z,986.84
2019-01-26T05:42:15.278Z,986.87
2019-01-26T05:43:15.279Z,986.87
2019-01-26T05:44:15.263Z,986.84
2019-01-26T05:45:15.250Z,986.85
2019-01-26T05:46:15.243Z,986.86
2019-01-26T05:47:15.230Z,986.82
2019-01-26T05:48:15.219Z,986.88
2019-01-26T05:49:15.211Z,986.84
2019-01-26T05:50:15.197Z,986.81
2019-01-26T05:51:15.186Z,986.8
2019-01-26T05:52:15.185Z,986.79
2019-01-26T05:53:15.169Z,986.77
2019-01-26T05:54:15.189Z,986.69
2019-01-26T05:55:15.144Z,986.68
2019-01-26T05:56:15.155Z,986.64
2019-01-26T05:57:15.126Z,986.63
2019-01-26T05:58:15.117Z,986.66
2019-01-26T05:59:15.103Z,986.66
2019-01-26T06:00:15.107Z,986.69
2019-01-26T06:01:15.086Z,986.73
2019-01-26T06:02:15.078Z,986.74
2019-01-26T06:03:15.075Z,986.78
2019-01-26T06:04:15.053Z,986.74
2019-01-26T06:05:15.043Z,986.7
2019-01-26T06:06:15.032Z,986.7
2019-01-26T06:07:15.021Z,986.68
2019-01-26T06:08:15.026Z,986.72
2019-01-26T06:09:15.011Z,986.73
2019-01-26T06:10:14.992Z,986.74
2019-01-26T06:11:14.985Z,986.79
2019-01-26T06:12:14.970Z,986.78
2019-01-26T06:13:14.962Z,986.94
2019-01-26T06:14:14.953Z,986.91
2019-01-26T06:15:14.940Z,986.88
2019-01-26T06:16:14.931Z,986.88
2019-01-26T06:17:14.918Z,986.83
2019-01-26T06:18:14.906Z,986.88
2019-01-26T06:19:14.896Z,986.84
2019-01-26T06:20:14.888Z,986.85
2019-01-26T06:21:14.882Z,986.87
2019-01-26T06:22:14.867Z,986.89
2019-01-26T06:23:14.873Z,986.84
2019-01-26T06:24:14.851Z,986.8
2019-01-26T06:25:14.890Z,986.79
2019-01-26T06:26:14.827Z,986.87
2019-01-26T06:27:14.813Z,986.92
2019-01-26T06:28:14.804Z,986.89
2019-01-26T06:29:14.797Z,986.87
2019-01-26T06:30:14.810Z,986.92
2019-01-26T06:31:14.789Z,986.91
2019-01-26T06:32:14.763Z,986.95
2019-01-26T06:33:14.760Z,986.93
2019-01-26T06:34:14.748Z,986.97
2019-01-26T06:35:14.811Z,986.92
2019-01-26T06:36:14.742Z,986.96
2019-01-26T06:37:14.713Z,986.94
2019-01-26T06:38:14.710Z,986.84
2019-01-26T06:39:14.693Z,986.85
2019-01-26T06:40:14.705Z,986.89
2019-01-26T06:41:14.694Z,986.87
2019-01-26T06:42:14.663Z,986.9
2019-01-26T06:43:14.654Z,986.86
2019-01-26T06:44:14.644Z,986.89
2019-01-26T06:45:14.670Z,986.88
2019-01-26T06:46:14.626Z,986.9
2019-01-26T06:47:14.621Z,986.87
2019-01-26T06:48:14.602Z,986.89
2019-01-26T06:49:14.594Z,986.92
2019-01-26T06:50:14.670Z,986.86
2019-01-26T06:51:14.585Z,986.88
2019-01-26T06:52:14.568Z,986.97
2019-01-26T06:53:14.549Z,986.98
2019-01-26T06:54:14.541Z,987.02
2019-01-26T06:55:14.636Z,987.02
2019-01-26T06:56:14.519Z,987.04
2019-01-26T06:57:14.510Z,987.02
2019-01-26T06:58:14.504Z,987.05
2019-01-26T06:59:14.490Z,987.05
2019-01-26T07:00:14.483Z,987.08
2019-01-26T07:01:14.477Z,987.06
2019-01-26T07:02:15.260Z,987.1
2019-01-26T07:03:14.448Z,987.08
2019-01-26T07:04:14.440Z,987.07
2019-01-26T07:05:14.429Z,987.08
2019-01-26T07:06:14.420Z,987.11
2019-01-26T07:07:14.411Z,987.07
2019-01-26T07:08:14.403Z,987.08
2019-01-26T07:09:14.392Z,987.1
2019-01-26T07:10:14.383Z,987.16
2019-01-26T07:11:14.370Z,987.11
2019-01-26T07:12:14.357Z,987.2
2019-01-26T07:13:14.366Z,987.18
2019-01-26T07:14:14.339Z,987.17
2019-01-26T07:15:14.363Z,987.19
2019-01-26T07:16:14.332Z,987.24
2019-01-26T07:17:14.327Z,987.23
2019-01-26T07:18:14.316Z,987.28
2019-01-26T07:19:14.306Z,987.2
2019-01-26T07:20:14.292Z,987.23
2019-01-26T07:21:14.289Z,987.21
2019-01-26T07:22:14.265Z,987.21
2019-01-26T07:23:14.268Z,987.22
2019-01-26T07:24:14.251Z,987.21
2019-01-26T07:25:14.244Z,987.16
2019-01-26T07:26:14.240Z,987.18
2019-01-26T07:27:14.226Z,987.16
2019-01-26T07:28:14.215Z,987.17
2019-01-26T07:29:14.217Z,987.14
2019-01-26T07:30:14.204Z,987.11
2019-01-26T07:31:14.179Z,987.13
2019-01-26T07:32:14.161Z,987.13
2019-01-26T07:33:14.157Z,987.13
2019-01-26T07:34:14.142Z,987.16
2019-01-26T07:35:14.128Z,987.1
2019-01-26T07:36:14.122Z,987.17
2019-01-26T07:37:14.111Z,987.11
2019-01-26T07:38:14.101Z,987.15
2019-01-26T07:39:14.090Z,987.13
2019-01-26T07:40:14.142Z,987.11
2019-01-26T07:41:14.080Z,987.16
2019-01-26T07:42:14.064Z,987.1
2019-01-26T07:43:14.051Z,987.13
2019-01-26T07:44:14.040Z,987.12
2019-01-26T07:45:14.071Z,987.08
2019-01-26T07:46:14.025Z,987.12
2019-01-26T07:47:14.012Z,987.13
2019-01-26T07:48:16.818Z,987.1
2019-01-26T07:49:14.028Z,987.07
2019-01-26T07:50:14.007Z,987.08
2019-01-26T07:51:13.973Z,987.05
2019-01-26T07:52:13.967Z,987.04
2019-01-26T07:53:13.952Z,987.07
2019-01-26T07:54:13.952Z,987.08
2019-01-26T07:55:13.932Z,987.03
2019-01-26T07:56:13.921Z,987.05
2019-01-26T07:57:13.914Z,987.03
2019-01-26T07:58:13.905Z,987.01
2019-01-26T07:59:13.895Z,986.97
2019-01-26T08:00:13.888Z,986.96
2019-01-26T08:01:13.877Z,986.96
2019-01-26T08:02:13.866Z,986.98
2019-01-26T08:03:13.856Z,986.94
2019-01-26T08:04:13.846Z,986.93
2019-01-26T08:05:13.838Z,986.87
2019-01-26T08:06:13.829Z,986.88
2019-01-26T08:07:13.822Z,986.89
2019-01-26T08:08:13.811Z,986.91
2019-01-26T08:09:13.799Z,986.88
2019-01-26T08:10:13.790Z,986.9
2019-01-26T08:11:13.780Z,986.89
2019-01-26T08:12:13.770Z,986.81
2019-01-26T08:13:13.761Z,986.83
2019-01-26T08:14:13.752Z,986.87
2019-01-26T08:15:13.749Z,986.8
2019-01-26T08:16:13.741Z,986.83
2019-01-26T08:17:13.743Z,986.83
2019-01-26T08:18:13.729Z,986.85
2019-01-26T08:19:13.703Z,986.82
2019-01-26T08:20:13.697Z,986.88
2019-01-26T08:21:13.686Z,986.89
2019-01-26T08:22:13.677Z,986.81
2019-01-26T08:23:15.316Z,986.89
2019-01-26T08:24:13.660Z,986.88
2019-01-26T08:25:13.649Z,986.93
2019-01-26T08:26:13.640Z,986.89
2019-01-26T08:27:13.637Z,986.89
2019-01-26T08:28:13.619Z,986.89
2019-01-26T08:29:13.609Z,986.87
2019-01-26T08:30:13.601Z,986.95
2019-01-26T08:31:13.596Z,986.87
2019-01-26T08:32:13.590Z,986.91
2019-01-26T08:33:13.582Z,986.92
2019-01-26T08:34:13.562Z,986.94
2019-01-26T08:35:13.555Z,986.93
2019-01-26T08:36:13.544Z,986.92
2019-01-26T08:37:13.533Z,986.94
2019-01-26T08:38:13.527Z,987.01
2019-01-26T08:39:13.516Z,986.92
2019-01-26T08:40:13.514Z,986.91
2019-01-26T08:41:13.502Z,986.9
2019-01-26T08:42:13.486Z,986.92
2019-01-26T08:43:13.480Z,986.94
2019-01-26T08:44:13.470Z,986.96
2019-01-26T08:45:13.459Z,986.98
2019-01-26T08:46:13.448Z,986.95
2019-01-26T08:47:13.439Z,986.99
2019-01-26T08:48:13.436Z,986.98
2019-01-26T08:49:13.429Z,986.93
2019-01-26T08:50:13.422Z,986.95
2019-01-26T08:51:13.406Z,986.83
2019-01-26T08:52:13.392Z,986.84
2019-01-26T08:53:13.384Z,986.84
2019-01-26T08:54:13.375Z,986.86
2019-01-26T08:55:18.044Z,986.82
2019-01-26T08:56:13.362Z,986.82
2019-01-26T08:57:13.354Z,986.82
2019-01-26T08:58:13.349Z,986.8
2019-01-26T08:59:13.331Z,986.76
2019-01-26T09:00:13.326Z,986.69
2019-01-26T09:01:13.316Z,986.76
2019-01-26T09:02:13.304Z,986.77
2019-01-26T09:03:13.296Z,986.74
2019-01-26T09:04:13.302Z,986.79
2019-01-26T09:05:13.277Z,986.76
2019-01-26T09:06:13.270Z,986.83
2019-01-26T09:07:13.262Z,986.83
2019-01-26T09:08:13.255Z,986.82
2019-01-26T09:09:13.248Z,986.81
2019-01-26T09:10:13.239Z,986.81
2019-01-26T09:11:13.239Z,986.83
2019-01-26T09:12:13.223Z,986.81
2019-01-26T09:13:13.214Z,986.74
2019-01-26T09:14:13.203Z,986.78
2019-01-26T09:15:13.195Z,986.76
2019-01-26T09:16:13.185Z,986.8
2019-01-26T09:17:13.180Z,986.76
2019-01-26T09:18:13.170Z,986.77
2019-01-26T09:19:13.166Z,986.86
2019-01-26T09:20:13.189Z,986.86
2019-01-26T09:21:13.148Z,986.85
2019-01-26T09:22:13.142Z,986.84
2019-01-26T09:23:13.131Z,986.83
2019-01-26T09:24:13.119Z,986.92
2019-01-26T09:25:13.116Z,986.88
2019-01-26T09:26:13.102Z,986.89
2019-01-26T09:27:13.099Z,986.88
2019-01-26T09:28:13.086Z,986.91
2019-01-26T09:29:13.081Z,986.9
2019-01-26T09:30:13.072Z,986.94
2019-01-26T09:31:13.068Z,987.01
2019-01-26T09:32:13.062Z,986.99
2019-01-26T09:33:13.047Z,986.98
2019-01-26T09:34:13.036Z,986.89
2019-01-26T09:35:13.030Z,986.91
2019-01-26T09:36:13.018Z,986.86
2019-01-26T09:37:13.013Z,986.83
2019-01-26T09:38:13.009Z,986.79
2019-01-26T09:39:12.992Z,986.81
2019-01-26T09:40:13.002Z,986.76
2019-01-26T09:41:12.980Z,986.77
2019-01-26T09:42:12.968Z,986.8
2019-01-26T09:43:12.960Z,986.82
2019-01-26T09:44:12.953Z,986.82
2019-01-26T09:45:12.945Z,986.86
2019-01-26T09:46:12.939Z,986.87
2019-01-26T09:47:12.927Z,986.79
2019-01-26T09:48:12.923Z,986.76
2019-01-26T09:49:12.909Z,986.71
2019-01-26T09:50:12.902Z,986.75
2019-01-26T09:51:12.897Z,986.78
2019-01-26T09:52:12.887Z,986.76
2019-01-26T09:53:12.878Z,986.75
2019-01-26T09:54:12.872Z,986.72
2019-01-26T09:55:12.864Z,986.73
2019-01-26T09:56:12.855Z,986.7
2019-01-26T09:57:12.859Z,986.66
2019-01-26T09:58:12.839Z,986.64
2019-01-26T09:59:13.687Z,986.65
2019-01-26T10:00:12.828Z,986.62
2019-01-26T10:01:12.815Z,986.71
2019-01-26T10:02:12.808Z,986.62
2019-01-26T10:03:12.800Z,986.59
2019-01-26T10:04:12.803Z,986.63
2019-01-26T10:05:12.781Z,986.68
2019-01-26T10:06:12.772Z,986.63
2019-01-26T10:07:12.765Z,986.63
2019-01-26T10:08:12.763Z,986.64
2019-01-26T10:09:13.110Z,986.68
2019-01-26T10:10:12.755Z,986.67
2019-01-26T10:11:12.734Z,986.64
2019-01-26T10:12:12.738Z,986.73
2019-01-26T10:13:12.719Z,986.7
2019-01-26T10:14:12.719Z,986.74
2019-01-26T10:15:12.712Z,986.78
2019-01-26T10:16:12.695Z,986.71
2019-01-26T10:17:12.693Z,986.7
2019-01-26T10:18:12.691Z,986.69
2019-01-26T10:19:12.677Z,986.67
2019-01-26T10:20:12.672Z,986.72
2019-01-26T10:21:12.662Z,986.72
2019-01-26T10:22:12.651Z,986.68
2019-01-26T10:23:12.650Z,986.74
2019-01-26T10:24:12.646Z,986.74
2019-01-26T10:25:12.630Z,986.67
2019-01-26T10:26:12.623Z,986.64
2019-01-26T10:27:12.616Z,986.72
2019-01-26T10:28:12.609Z,986.72
2019-01-26T10:29:12.598Z,986.7
2019-01-26T10:30:12.619Z,986.69
2019-01-26T10:31:12.595Z,986.7
2019-01-26T10:32:12.576Z,986.7
2019-01-26T10:33:12.567Z,986.67
2019-01-26T10:34:12.562Z,986.66
2019-01-26T10:35:12.557Z,986.65
2019-01-26T10:36:12.550Z,986.64
2019-01-26T10:37:12.539Z,986.69
2019-01-26T10:38:12.532Z,986.64
2019-01-26T10:39:12.525Z,986.69
2019-01-26T10:40:12.523Z,986.73
2019-01-26T10:41:12.509Z,986.68
2019-01-26T10:42:12.504Z,986.74
2019-01-26T10:43:12.501Z,986.7
2019-01-26T10:44:12.488Z,986.74
2019-01-26T10:45:12.479Z,986.76
2019-01-26T10:46:12.478Z,986.75
2019-01-26T10:47:12.465Z,986.69
2019-01-26T10:48:12.464Z,986.69
2019-01-26T10:49:12.456Z,986.75
2019-01-26T10:50:12.444Z,986.68
2019-01-26T10:51:12.449Z,986.72
2019-01-26T10:52:12.429Z,986.7
2019-01-26T10:53:12.424Z,986.6
2019-01-26T10:54:12.414Z,986.57
2019-01-26T10:55:12.410Z,986.52
2019-01-26T10:56:12.404Z,986.46
2019-01-26T10:57:12.396Z,986.45
2019-01-26T10:58:12.387Z,986.48
2019-01-26T10:59:12.385Z,986.42
2019-01-26T11:00:12.378Z,986.41
2019-01-26T11:01:12.375Z,986.42
2019-01-26T11:02:12.372Z,986.37
2019-01-26T11:03:12.355Z,986.35
2019-01-26T11:04:12.357Z,986.37
2019-01-26T11:05:12.350Z,986.3
2019-01-26T11:06:12.337Z,986.34
2019-01-26T11:07:12.345Z,986.3
2019-01-26T11:08:12.365Z,986.27
2019-01-26T11:09:12.318Z,986.28
2019-01-26T11:10:12.327Z,986.3
2019-01-26T11:11:12.304Z,986.35
2019-01-26T11:12:12.300Z,986.33
2019-01-26T11:13:12.292Z,986.3
2019-01-26T11:14:12.287Z,986.32
2019-01-26T11:15:12.283Z,986.34
2019-01-26T11:16:12.282Z,986.26
2019-01-26T11:17:12.281Z,986.21
2019-01-26T11:18:12.266Z,986.18
2019-01-26T11:19:12.281Z,986.15
2019-01-26T11:20:12.253Z,986.14
2019-01-26T11:21:12.250Z,986.09
2019-01-26T11:22:12.243Z,986.17
2019-01-26T11:23:12.239Z,986.12
2019-01-26T11:24:13.281Z,986.05
2019-01-26T11:25:12.226Z,985.98
2019-01-26T11:26:12.221Z,986
2019-01-26T11:27:12.214Z,985.93
2019-01-26T11:28:12.210Z,985.95
2019-01-26T11:29:12.207Z,985.94
2019-01-26T11:30:12.208Z,985.94
2019-01-26T11:31:12.196Z,985.85
2019-01-26T11:32:12.192Z,985.81
2019-01-26T11:33:12.185Z,985.8
2019-01-26T11:34:12.183Z,985.81
2019-01-26T11:35:12.176Z,985.83
2019-01-26T11:36:12.170Z,985.79
2019-01-26T11:37:12.166Z,985.74
2019-01-26T11:38:12.159Z,985.76
2019-01-26T11:39:12.152Z,985.78
2019-01-26T11:40:12.147Z,985.81
2019-01-26T11:41:12.143Z,985.76
2019-01-26T11:42:12.137Z,985.75
2019-01-26T11:43:12.134Z,985.77
2019-01-26T11:44:12.128Z,985.76
2019-01-26T11:45:12.122Z,985.72
2019-01-26T11:46:12.115Z,985.74
2019-01-26T11:47:12.109Z,985.68
2019-01-26T11:48:12.105Z,985.66
2019-01-26T11:49:15.133Z,985.69
2019-01-26T11:50:12.093Z,985.64
2019-01-26T11:51:12.088Z,985.65
2019-01-26T11:52:12.081Z,985.62
2019-01-26T11:53:12.076Z,985.72
2019-01-26T11:54:12.069Z,985.65
2019-01-26T11:55:12.065Z,985.59
2019-01-26T11:56:12.059Z,985.58
2019-01-26T11:57:12.053Z,985.63
2019-01-26T11:58:12.048Z,985.56
2019-01-26T11:59:12.043Z,985.58
2019-01-26T12:00:12.040Z,985.58
2019-01-26T12:01:12.033Z,985.62
2019-01-26T12:02:12.027Z,985.54
2019-01-26T12:03:12.025Z,985.42
2019-01-26T12:04:12.017Z,985.39
2019-01-26T12:05:12.013Z,985.41
2019-01-26T12:06:12.005Z,985.36
2019-01-26T12:07:12.009Z,985.39
2019-01-26T12:08:11.997Z,985.34
2019-01-26T12:09:11.992Z,985.33
2019-01-26T12:10:11.988Z,985.34
2019-01-26T12:11:11.981Z,985.39
2019-01-26T12:12:11.977Z,985.45
2019-01-26T12:13:11.976Z,985.48
2019-01-26T12:14:11.968Z,985.37
2019-01-26T12:15:11.965Z,985.32
2019-01-26T12:16:11.956Z,985.37
2019-01-26T12:17:11.954Z,985.29
2019-01-26T12:18:11.955Z,985.27
2019-01-26T12:19:11.958Z,985.3
2019-01-26T12:20:11.942Z,985.29
2019-01-26T12:21:11.936Z,985.33
2019-01-26T12:22:11.931Z,985.2
2019-01-26T12:23:11.926Z,985.21
2019-01-26T12:24:12.116Z,985.19
2019-01-26T12:25:11.966Z,985.12
2019-01-26T12:26:11.914Z,985.12
2019-01-26T12:27:11.909Z,985.16
2019-01-26T12:28:11.908Z,985.07
2019-01-26T12:29:11.903Z,985.08
2019-01-26T12:30:11.889Z,985.08
2019-01-26T12:31:11.908Z,985.07